sensor_id;sensor_type;location;lat;lon;timestamp;pressure;altitude;pressure_sealevel;temperature;humidity
929;BME280;451;47.988;7.842;2023-05-23T00:02:36;98369.28;;;17.82;100.00
929;BME280;451;47.988;7.842;2023-05-23T00:11:39;98369.78;;;17.72;100.00
929;BME280;451;47.988;7.842;2023-05-23T00:20:48;98341.72;;;17.51;100.00
929;BME280;451;47.988;7.842;2023-05-23T00:29:52;98367.06;;;17.54;100.00
929;BME280;451;47.988;7.842;2023-05-23T00:38:57;98155.44;;;15.59;100.00
929;BME280;451;47.988;7.842;2023-05-23T00:48:00;98105.28;;;15.51;100.00
929;BME280;451;47.988;7.842;2023-05-23T00:57:06;98236.31;;;16.26;100.00
929;BME280;451;47.988;7.842;2023-05-23T01:06:09;98395.25;;;17.30;100.00
929;BME280;451;47.988;7.842;2023-05-23T01:15:15;98190.22;;;16.21;100.00
929;BME280;451;47.988;7.842;2023-05-23T01:24:39;98375.38;;;17.64;100.00
929;BME280;451;47.988;7.842;2023-05-23T01:33:49;98281.28;;;17.40;100.00
929;BME280;451;47.988;7.842;2023-05-23T01:42:55;98378.72;;;18.21;100.00
929;BME280;451;47.988;7.842;2023-05-23T01:52:00;98336.59;;;18.18;100.00
929;BME280;451;47.988;7.842;2023-05-23T02:01:04;98341.00;;;17.87;100.00
929;BME280;451;47.988;7.842;2023-05-23T02:10:08;98380.63;;;18.13;100.00
929;BME280;451;47.988;7.842;2023-05-23T02:19:13;98251.84;;;17.42;100.00
929;BME280;451;47.988;7.842;2023-05-23T02:28:17;98378.19;;;17.69;100.00
929;BME280;451;47.988;7.842;2023-05-23T02:37:21;98281.91;;;16.54;100.00
929;BME280;451;47.988;7.842;2023-05-23T02:46:25;98392.69;;;17.73;100.00
929;BME280;451;47.988;7.842;2023-05-23T02:55:29;98347.84;;;17.52;100.00
929;BME280;451;47.988;7.842;2023-05-23T03:04:34;98337.47;;;17.19;100.00
929;BME280;451;47.988;7.842;2023-05-23T03:13:38;98370.69;;;17.03;100.00
929;BME280;451;47.988;7.842;2023-05-23T03:22:43;98382.25;;;17.47;100.00
929;BME280;451;47.988;7.842;2023-05-23T03:31:52;98388.66;;;17.64;100.00
929;BME280;451;47.988;7.842;2023-05-23T03:40:57;98415.81;;;17.97;100.00
929;BME280;451;47.988;7.842;2023-05-23T03:50:00;98399.53;;;17.56;100.00
929;BME280;451;47.988;7.842;2023-05-23T03:59:05;98407.22;;;17.95;100.00
929;BME280;451;47.988;7.842;2023-05-23T04:08:08;98376.63;;;17.86;100.00
929;BME280;451;47.988;7.842;2023-05-23T04:17:13;98465.19;;;18.54;100.00
929;BME280;451;47.988;7.842;2023-05-23T04:26:16;98246.75;;;17.40;100.00
929;BME280;451;47.988;7.842;2023-05-23T04:35:25;98431.03;;;18.70;100.00
929;BME280;451;47.988;7.842;2023-05-23T04:44:29;98428.91;;;18.78;100.00
929;BME280;451;47.988;7.842;2023-05-23T04:53:56;98306.94;;;18.32;100.00
929;BME280;451;47.988;7.842;2023-05-23T05:03:00;98424.03;;;19.35;100.00
929;BME280;451;47.988;7.842;2023-05-23T05:12:06;98442.38;;;19.73;100.00
929;BME280;451;47.988;7.842;2023-05-23T05:21:10;98449.03;;;19.52;100.00
929;BME280;451;47.988;7.842;2023-05-23T05:30:15;98424.31;;;20.33;98.69
929;BME280;451;47.988;7.842;2023-05-23T05:39:24;98454.75;;;19.08;100.00
929;BME280;451;47.988;7.842;2023-05-23T05:48:29;98468.91;;;18.90;100.00
929;BME280;451;47.988;7.842;2023-05-23T05:57:36;98477.88;;;18.96;100.00
929;BME280;451;47.988;7.842;2023-05-23T06:06:42;98488.34;;;18.54;100.00
929;BME280;451;47.988;7.842;2023-05-23T06:15:47;98436.09;;;18.17;100.00
929;BME280;451;47.988;7.842;2023-05-23T06:24:52;98486.47;;;18.36;100.00
929;BME280;451;47.988;7.842;2023-05-23T06:33:55;98485.41;;;18.80;100.00
929;BME280;451;47.988;7.842;2023-05-23T06:42:59;98488.81;;;19.06;100.00
929;BME280;451;47.988;7.842;2023-05-23T06:52:26;98501.94;;;19.37;100.00
929;BME280;451;47.988;7.842;2023-05-23T07:01:30;98484.97;;;19.50;100.00
929;BME280;451;47.988;7.842;2023-05-23T07:10:34;98500.91;;;20.21;100.00
929;BME280;451;47.988;7.842;2023-05-23T07:19:52;98513.59;;;20.37;100.00
929;BME280;451;47.988;7.842;2023-05-23T07:28:55;98506.78;;;20.00;100.00
929;BME280;451;47.988;7.842;2023-05-23T07:38:00;98514.94;;;20.05;100.00
929;BME280;451;47.988;7.842;2023-05-23T07:47:03;98517.75;;;20.10;100.00
929;BME280;451;47.988;7.842;2023-05-23T07:56:08;98502.03;;;22.75;84.80
929;BME280;451;47.988;7.842;2023-05-23T08:05:15;98482.16;;;22.38;83.07
929;BME280;451;47.988;7.842;2023-05-23T08:14:23;98515.13;;;23.37;80.65
929;BME280;451;47.988;7.842;2023-05-23T08:24:04;98521.81;;;21.46;89.63
929;BME280;451;47.988;7.842;2023-05-23T08:33:10;98557.09;;;20.26;98.91
929;BME280;451;47.988;7.842;2023-05-23T08:42:19;98491.75;;;20.64;97.38
929;BME280;451;47.988;7.842;2023-05-23T08:51:25;98541.56;;;20.93;94.93
929;BME280;451;47.988;7.842;2023-05-23T09:00:30;98542.13;;;21.18;92.01
929;BME280;451;47.988;7.842;2023-05-23T09:09:37;98538.94;;;20.46;96.68
929;BME280;451;47.988;7.842;2023-05-23T09:18:44;98543.03;;;21.36;91.43
929;BME280;451;47.988;7.842;2023-05-23T09:27:52;98545.97;;;22.58;80.63
929;BME280;451;47.988;7.842;2023-05-23T09:36:57;98546.53;;;21.24;88.33
929;BME280;451;47.988;7.842;2023-05-23T09:46:06;98553.69;;;22.37;83.21
929;BME280;451;47.988;7.842;2023-05-23T09:55:09;98500.50;;;22.79;75.56
929;BME280;451;47.988;7.842;2023-05-23T10:04:16;98547.13;;;22.78;77.54
929;BME280;451;47.988;7.842;2023-05-23T10:13:21;98551.03;;;22.21;76.18
929;BME280;451;47.988;7.842;2023-05-23T10:22:29;98537.06;;;23.29;73.50
929;BME280;451;47.988;7.842;2023-05-23T10:31:34;98530.72;;;22.58;76.73
929;BME280;451;47.988;7.842;2023-05-23T10:40:59;98539.31;;;22.77;72.76
929;BME280;451;47.988;7.842;2023-05-23T10:50:05;98538.16;;;22.56;72.58
929;BME280;451;47.988;7.842;2023-05-23T10:59:18;98524.38;;;22.64;74.06
929;BME280;451;47.988;7.842;2023-05-23T11:08:23;98531.50;;;22.92;71.15
929;BME280;451;47.988;7.842;2023-05-23T11:17:31;98531.53;;;22.59;72.11
929;BME280;451;47.988;7.842;2023-05-23T11:26:34;98520.28;;;23.17;70.49
929;BME280;451;47.988;7.842;2023-05-23T11:35:40;98524.34;;;22.81;71.36
929;BME280;451;47.988;7.842;2023-05-23T11:44:43;98524.69;;;23.06;69.00
929;BME280;451;47.988;7.842;2023-05-23T11:53:48;98531.22;;;23.37;67.99
929;BME280;451;47.988;7.842;2023-05-23T12:02:51;98516.78;;;23.16;67.97
929;BME280;451;47.988;7.842;2023-05-23T12:11:56;98538.16;;;23.33;65.98
929;BME280;451;47.988;7.842;2023-05-23T12:20:59;98541.63;;;22.35;69.22
929;BME280;451;47.988;7.842;2023-05-23T12:30:06;98463.63;;;22.53;67.22
929;BME280;451;47.988;7.842;2023-05-23T12:39:10;98519.03;;;23.03;66.87
929;BME280;451;47.988;7.842;2023-05-23T12:48:15;98509.47;;;22.35;67.80
929;BME280;451;47.988;7.842;2023-05-23T12:57:18;98478.59;;;21.99;69.73
929;BME280;451;47.988;7.842;2023-05-23T13:06:23;98516.50;;;22.07;67.67
929;BME280;451;47.988;7.842;2023-05-23T13:15:26;98515.94;;;22.05;68.21
929;BME280;451;47.988;7.842;2023-05-23T13:24:30;98502.56;;;22.05;68.17
929;BME280;451;47.988;7.842;2023-05-23T13:33:33;98489.38;;;22.54;66.71
929;BME280;451;47.988;7.842;2023-05-23T13:42:38;98496.00;;;22.30;64.80
929;BME280;451;47.988;7.842;2023-05-23T13:51:42;98487.25;;;22.56;66.35
929;BME280;451;47.988;7.842;2023-05-23T14:00:46;98482.59;;;22.68;63.77
929;BME280;451;47.988;7.842;2023-05-23T14:09:49;98494.19;;;21.57;67.91
929;BME280;451;47.988;7.842;2023-05-23T14:18:54;98472.44;;;22.48;63.73
929;BME280;451;47.988;7.842;2023-05-23T14:27:57;98479.59;;;22.09;65.21
929;BME280;451;47.988;7.842;2023-05-23T14:37:01;98505.72;;;22.36;64.63
929;BME280;451;47.988;7.842;2023-05-23T14:46:04;98486.81;;;21.64;66.17
929;BME280;451;47.988;7.842;2023-05-23T14:55:09;98514.66;;;22.08;64.45
929;BME280;451;47.988;7.842;2023-05-23T15:04:12;98485.63;;;22.17;64.41
929;BME280;451;47.988;7.842;2023-05-23T15:13:17;98461.56;;;22.22;62.12
929;BME280;451;47.988;7.842;2023-05-23T15:22:21;98467.56;;;21.79;62.09
929;BME280;451;47.988;7.842;2023-05-23T15:31:25;98479.69;;;21.53;62.97
929;BME280;451;47.988;7.842;2023-05-23T15:40:28;98527.31;;;22.46;60.31
929;BME280;451;47.988;7.842;2023-05-23T15:49:33;98441.25;;;21.42;62.61
929;BME280;451;47.988;7.842;2023-05-23T15:58:36;98514.44;;;21.24;63.34
929;BME280;451;47.988;7.842;2023-05-23T16:07:41;98488.47;;;22.65;60.69
929;BME280;451;47.988;7.842;2023-05-23T16:16:44;98485.28;;;22.13;59.97
929;BME280;451;47.988;7.842;2023-05-23T16:25:48;98474.31;;;21.24;61.91
929;BME280;451;47.988;7.842;2023-05-23T16:34:51;98488.75;;;21.52;60.96
929;BME280;451;47.988;7.842;2023-05-23T16:43:56;98482.03;;;21.09;64.45
929;BME280;451;47.988;7.842;2023-05-23T16:52:59;98466.16;;;20.91;62.59
929;BME280;451;47.988;7.842;2023-05-23T17:02:04;98500.88;;;21.43;60.85
929;BME280;451;47.988;7.842;2023-05-23T17:11:07;98461.44;;;21.21;61.57
929;BME280;451;47.988;7.842;2023-05-23T17:20:13;98480.75;;;21.00;63.21
929;BME280;451;47.988;7.842;2023-05-23T17:29:17;98488.22;;;20.98;61.80
929;BME280;451;47.988;7.842;2023-05-23T17:38:22;98500.38;;;21.06;59.52
929;BME280;451;47.988;7.842;2023-05-23T17:47:25;98461.09;;;20.43;61.98
929;BME280;451;47.988;7.842;2023-05-23T17:56:30;98293.16;;;19.37;61.98
929;BME280;451;47.988;7.842;2023-05-23T18:05:33;98511.28;;;20.52;61.82
929;BME280;451;47.988;7.842;2023-05-23T18:14:37;98502.34;;;20.47;63.29
929;BME280;451;47.988;7.842;2023-05-23T18:23:41;98508.81;;;20.16;65.34
929;BME280;451;47.988;7.842;2023-05-23T18:32:45;98500.94;;;20.56;63.92
929;BME280;451;47.988;7.842;2023-05-23T18:41:48;98527.66;;;20.33;65.68
929;BME280;451;47.988;7.842;2023-05-23T18:50:53;98519.81;;;20.08;67.04
929;BME280;451;47.988;7.842;2023-05-23T18:59:56;98526.13;;;20.37;67.28
929;BME280;451;47.988;7.842;2023-05-23T19:09:01;98539.25;;;19.85;68.17
929;BME280;451;47.988;7.842;2023-05-23T19:18:10;98549.03;;;19.43;69.57
929;BME280;451;47.988;7.842;2023-05-23T19:27:14;98554.94;;;19.63;68.07
929;BME280;451;47.988;7.842;2023-05-23T19:36:18;98522.56;;;18.93;70.32
929;BME280;451;47.988;7.842;2023-05-23T19:45:22;98575.13;;;19.23;70.95
929;BME280;451;47.988;7.842;2023-05-23T19:54:25;98625.66;;;19.36;70.36
929;BME280;451;47.988;7.842;2023-05-23T20:03:30;98584.44;;;18.96;72.42
929;BME280;451;47.988;7.842;2023-05-23T20:12:33;98603.84;;;18.84;74.67
929;BME280;451;47.988;7.842;2023-05-23T20:21:38;98620.88;;;18.52;78.24
929;BME280;451;47.988;7.842;2023-05-23T20:30:41;98629.38;;;18.11;81.05
929;BME280;451;47.988;7.842;2023-05-23T20:39:45;98638.31;;;17.85;83.25
929;BME280;451;47.988;7.842;2023-05-23T20:48:49;98649.13;;;17.90;82.46
929;BME280;451;47.988;7.842;2023-05-23T20:57:53;98656.59;;;17.55;84.33
929;BME280;451;47.988;7.842;2023-05-23T21:06:56;98659.91;;;17.51;85.39
929;BME280;451;47.988;7.842;2023-05-23T21:16:01;98668.75;;;17.18;86.50
929;BME280;451;47.988;7.842;2023-05-23T21:25:04;98673.22;;;17.38;85.55
929;BME280;451;47.988;7.842;2023-05-23T21:34:09;98682.28;;;16.97;87.50
929;BME280;451;47.988;7.842;2023-05-23T21:43:12;98672.19;;;17.39;84.95
929;BME280;451;47.988;7.842;2023-05-23T21:52:16;98673.25;;;17.24;85.16
929;BME280;451;47.988;7.842;2023-05-23T22:01:19;98680.03;;;16.81;86.59
929;BME280;451;47.988;7.842;2023-05-23T22:10:24;98685.50;;;16.46;89.06
929;BME280;451;47.988;7.842;2023-05-23T22:19:27;98668.94;;;16.31;89.96
929;BME280;451;47.988;7.842;2023-05-23T22:28:32;98498.94;;;15.06;91.19
929;BME280;451;47.988;7.842;2023-05-23T22:37:36;98700.53;;;16.13;92.94
929;BME280;451;47.988;7.842;2023-05-23T22:46:40;98701.75;;;16.04;93.72
929;BME280;451;47.988;7.842;2023-05-23T22:55:44;98694.13;;;15.88;91.62
929;BME280;451;47.988;7.842;2023-05-23T23:04:48;98590.13;;;14.97;90.48
929;BME280;451;47.988;7.842;2023-05-23T23:13:51;98687.50;;;15.64;90.48
929;BME280;451;47.988;7.842;2023-05-23T23:22:55;98640.72;;;15.91;85.57
929;BME280;451;47.988;7.842;2023-05-23T23:31:59;98677.09;;;15.28;88.53
929;BME280;451;47.988;7.842;2023-05-23T23:41:03;98666.91;;;15.31;88.14
929;BME280;451;47.988;7.842;2023-05-23T23:50:07;98663.66;;;15.29;88.20
929;BME280;451;47.988;7.842;2023-05-23T23:59:12;98660.41;;;15.68;83.66
